Time;durP1;ratioP1;P1;durP2;ratioP2;P2;SDS_P1;SDS_P2;PMS_P1;PMS_P2;Temp;Humidity;BMP_temperature;BMP_pressure;BME280_temperature;BME280_humidity;BME280_pressure;Samples;Min_cycle;Max_cycle;Signal;HPM_P1;HPM_P2
2022/08/10 00:01:52;;;;;;;2.33;1.35;;;;;;;;;;7386807;19;20002;-61
2022/08/10 00:04:22;;;;;;;4.38;1.63;;;;;;;;;;7389369;19;20003;-63
2022/08/10 00:06:48;;;;;;;4.75;1.50;;;;;;;;;;7390210;19;20013;-61
2022/08/10 00:09:13;;;;;;;2.08;1.63;;;;;;;;;;7389128;19;19998;-62
2022/08/10 00:11:38;;;;;;;2.78;1.60;;;;;;;;;;7390473;19;19998;-61
2022/08/10 00:14:04;;;;;;;2.33;1.50;;;;;;;;;;7388168;19;19996;-62
2022/08/10 00:16:29;;;;;;;3.40;1.60;;;;;;;;;;7386171;19;20006;-62
2022/08/10 00:18:54;;;;;;;1.63;1.40;;;;;;;;;;7390715;19;20008;-62
2022/08/10 00:21:20;;;;;;;2.25;1.52;;;;;;;;;;7386620;19;20010;-62
2022/08/10 00:23:45;;;;;;;2.17;1.67;;;;;;;;;;7387565;19;20460;-63
2022/08/10 00:26:11;;;;;;;2.25;1.55;;;;;;;;;;7388270;19;20002;-61
2022/08/10 00:28:37;;;;;;;2.70;1.58;;;;;;;;;;7388473;19;20476;-62
2022/08/10 00:31:03;;;;;;;2.33;1.52;;;;;;;;;;7389519;19;20482;-62
2022/08/10 00:33:28;;;;;;;2.22;1.50;;;;;;;;;;7388007;19;20010;-62
2022/08/10 00:35:54;;;;;;;1.95;1.40;;;;;;;;;;7386302;19;20006;-61
2022/08/10 00:38:19;;;;;;;2.47;1.40;;;;;;;;;;7387576;19;20003;-62
2022/08/10 00:40:45;;;;;;;2.13;1.55;;;;;;;;;;7389252;19;20029;-61
2022/08/10 00:43:10;;;;;;;2.28;1.40;;;;;;;;;;7389129;19;20002;-62
2022/08/10 00:45:35;;;;;;;2.28;1.70;;;;;;;;;;7386507;19;19998;-61
2022/08/10 00:48:01;;;;;;;5.90;1.70;;;;;;;;;;7387261;19;20344;-62
2022/08/10 00:50:28;;;;;;;1.60;1.20;;;;;;;;;;7389023;19;20366;-62
2022/08/10 00:52:53;;;;;;;1.20;1.10;;;;;;;;;;7387982;19;20002;-61
2022/08/10 00:55:19;;;;;;;2.40;1.50;;;;;;;;;;7388039;19;20013;-62
2022/08/10 00:57:46;;;;;;;1.80;1.30;;;;;;;;;;7388083;19;19998;-62
2022/08/10 01:00:12;;;;;;;1.98;1.27;;;;;;;;;;7387105;19;20003;-62
2022/08/10 01:02:39;;;;;;;2.95;1.50;;;;;;;;;;7386947;19;20003;-62
2022/08/10 01:05:07;;;;;;;1.58;1.20;;;;;;;;;;7388306;19;20175;-61
2022/08/10 01:07:36;;;;;;;3.17;1.42;;;;;;;;;;7387190;19;20476;-61
2022/08/10 01:10:29;;;;;;;3.88;1.77;;;;;;;;;;7389149;19;20002;-61
2022/08/10 01:13:23;;;;;;;2.03;1.50;;;;;;;;;;7388332;19;20002;-61
2022/08/10 01:16:15;;;;;;;2.88;1.45;;;;;;;;;;7385429;19;20040;-61
2022/08/10 01:18:53;;;;;;;2.75;1.25;;;;;;;;;;7386880;19;20006;-61
2022/08/10 01:21:37;;;;;;;2.70;1.60;;;;;;;;;;7389138;19;20009;-61
2022/08/10 01:24:30;;;;;;;2.88;1.58;;;;;;;;;;7388345;19;20003;-62
2022/08/10 01:27:23;;;;;;;2.20;1.50;;;;;;;;;;7388333;19;20006;-62
2022/08/10 01:29:54;;;;;;;3.28;1.60;;;;;;;;;;7391496;19;20530;-62
2022/08/10 01:32:47;;;;;;;1.70;1.50;;;;;;;;;;7387658;19;20022;-61
2022/08/10 01:35:23;;;;;;;2.47;1.60;;;;;;;;;;7390716;19;20014;-61
2022/08/10 01:38:01;;;;;;;1.50;1.40;;;;;;;;;;7395263;19;20340;-61
2022/08/10 01:40:30;;;;;;;2.95;1.65;;;;;;;;;;7393307;19;20357;-61
2022/08/10 01:43:00;;;;;;;1.67;1.38;;;;;;;;;;7390881;19;20504;-61
2022/08/10 01:45:28;;;;;;;2.17;1.50;;;;;;;;;;7390072;19;19998;-61
2022/08/10 01:50:46;;;;;;;3.17;1.80;;;;;;;;;;7390861;19;20088;-62
2022/08/10 01:53:17;;;;;;;1.38;1.27;;;;;;;;;;7388591;19;20082;-62
2022/08/10 01:55:44;;;;;;;3.95;1.67;;;;;;;;;;7387012;19;20042;-62
2022/08/10 01:58:11;;;;;;;1.92;1.45;;;;;;;;;;7389864;19;20099;-62
2022/08/10 02:00:39;;;;;;;2.10;1.40;;;;;;;;;;7394408;19;20007;-62
2022/08/10 02:03:07;;;;;;;2.47;1.60;;;;;;;;;;7392913;19;20003;-61
2022/08/10 02:05:36;;;;;;;2.70;1.90;;;;;;;;;;7392701;19;20773;-62
2022/08/10 02:08:04;;;;;;;1.75;1.42;;;;;;;;;;7392662;19;20023;-62
2022/08/10 02:10:32;;;;;;;2.10;1.40;;;;;;;;;;7392562;19;20002;-61
2022/08/10 02:12:58;;;;;;;2.25;1.52;;;;;;;;;;7392425;19;20497;-61
2022/08/10 02:15:28;;;;;;;2.38;1.55;;;;;;;;;;7392547;19;20003;-61
2022/08/10 02:18:00;;;;;;;3.50;1.67;;;;;;;;;;7392938;19;20606;-62
2022/08/10 02:20:35;;;;;;;6.07;1.48;;;;;;;;;;7393620;19;20503;-61
2022/08/10 02:23:05;;;;;;;1.60;1.42;;;;;;;;;;7393737;19;20006;-61
2022/08/10 02:25:32;;;;;;;3.73;1.93;;;;;;;;;;7392116;19;20024;-62
2022/08/10 02:27:59;;;;;;;1.58;1.48;;;;;;;;;;7392358;19;20006;-62
2022/08/10 02:30:26;;;;;;;1.73;1.60;;;;;;;;;;7393682;19;20002;-61
2022/08/10 02:32:52;;;;;;;1.92;1.58;;;;;;;;;;7392448;19;20074;-61
2022/08/10 02:35:20;;;;;;;1.38;1.23;;;;;;;;;;7392397;19;20104;-61
2022/08/10 02:37:47;;;;;;;2.25;1.60;;;;;;;;;;7392075;19;20109;-61
2022/08/10 02:40:13;;;;;;;2.28;1.45;;;;;;;;;;7393333;19;19995;-62
2022/08/10 02:42:55;;;;;;;1.88;1.50;;;;;;;;;;7393471;19;20019;-62
2022/08/10 02:45:28;;;;;;;1.67;1.58;;;;;;;;;;7391077;19;20010;-65
2022/08/10 02:48:00;;;;;;;2.33;1.52;;;;;;;;;;7392248;19;20473;-62
2022/08/10 02:50:26;;;;;;;2.08;1.60;;;;;;;;;;7393568;19;20318;-62
2022/08/10 02:53:11;;;;;;;2.25;1.70;;;;;;;;;;7391248;19;20002;-63
2022/08/10 02:56:12;;;;;;;9.65;4.53;;;;;;;;;;7391905;19;20002;-62
2022/08/10 02:58:47;;;;;;;3.83;2.40;;;;;;;;;;7389558;19;19991;-62
2022/08/10 03:01:20;;;;;;;3.22;1.58;;;;;;;;;;7393225;19;20054;-61
2022/08/10 03:04:19;;;;;;;3.42;1.90;;;;;;;;;;7391604;19;20013;-62
2022/08/10 03:06:56;;;;;;;2.25;1.52;;;;;;;;;;7392691;19;20460;-61
2022/08/10 03:09:25;;;;;;;3.97;1.92;;;;;;;;;;7391702;19;19995;-61
2022/08/10 03:11:53;;;;;;;2.22;1.50;;;;;;;;;;7390994;19;20001;-61
2022/08/10 03:14:20;;;;;;;3.60;1.92;;;;;;;;;;7392028;19;19994;-61
2022/08/10 03:16:46;;;;;;;2.83;1.77;;;;;;;;;;7396726;19;20054;-61
2022/08/10 03:19:12;;;;;;;2.80;1.80;;;;;;;;;;7392569;19;19998;-61
2022/08/10 03:21:38;;;;;;;4.18;2.20;;;;;;;;;;7392073;19;20005;-61
2022/08/10 03:24:05;;;;;;;5.82;2.95;;;;;;;;;;7392220;19;19990;-61
2022/08/10 03:26:31;;;;;;;5.00;2.10;;;;;;;;;;7389414;19;19998;-61
2022/08/10 03:28:59;;;;;;;2.63;1.50;;;;;;;;;;7391347;19;19998;-61
2022/08/10 03:31:27;;;;;;;4.05;1.85;;;;;;;;;;7391586;19;20555;-61
2022/08/10 03:33:53;;;;;;;3.22;1.90;;;;;;;;;;7388379;19;19995;-61
2022/08/10 03:36:18;;;;;;;3.58;2.00;;;;;;;;;;7387464;19;20002;-61
2022/08/10 03:38:47;;;;;;;1.90;1.48;;;;;;;;;;7388691;19;20001;-61
2022/08/10 03:41:15;;;;;;;2.55;1.70;;;;;;;;;;7387703;19;20460;-61
2022/08/10 03:43:43;;;;;;;2.00;1.58;;;;;;;;;;7390809;19;19999;-61
2022/08/10 03:46:11;;;;;;;1.48;1.35;;;;;;;;;;7392357;19;20025;-60
2022/08/10 03:48:37;;;;;;;2.05;1.45;;;;;;;;;;7389701;19;20005;-61
2022/08/10 03:51:03;;;;;;;2.15;1.67;;;;;;;;;;7390904;19;20359;-61
2022/08/10 03:53:29;;;;;;;2.35;1.52;;;;;;;;;;7387310;19;20330;-61
2022/08/10 03:55:55;;;;;;;4.35;1.80;;;;;;;;;;7388234;19;20005;-61
2022/08/10 03:58:20;;;;;;;2.47;1.50;;;;;;;;;;7388052;19;20452;-61
2022/08/10 04:00:49;;;;;;;1.58;1.35;;;;;;;;;;7390821;19;20512;-62
2022/08/10 04:03:15;;;;;;;1.63;1.25;;;;;;;;;;7388557;19;20009;-63
2022/08/10 04:05:41;;;;;;;2.28;1.52;;;;;;;;;;7388961;19;20073;-63
2022/08/10 04:08:06;;;;;;;2.25;1.70;;;;;;;;;;7389654;19;20015;-62
2022/08/10 04:10:32;;;;;;;4.78;2.08;;;;;;;;;;7389164;19;20002;-66
2022/08/10 04:12:57;;;;;;;3.03;1.77;;;;;;;;;;7389120;19;20362;-63
2022/08/10 04:15:25;;;;;;;1.98;1.40;;;;;;;;;;7389744;19;20335;-62
2022/08/10 04:17:51;;;;;;;2.22;1.50;;;;;;;;;;7389790;19;19999;-63
2022/08/10 04:20:24;;;;;;;1.33;1.23;;;;;;;;;;7390276;19;20700;-62
2022/08/10 04:22:52;;;;;;;2.05;1.55;;;;;;;;;;7390448;19;20006;-62
2022/08/10 04:25:19;;;;;;;2.85;1.95;;;;;;;;;;7389105;19;20006;-62
2022/08/10 04:27:46;;;;;;;3.58;1.83;;;;;;;;;;7388603;19;20007;-62
2022/08/10 04:30:11;;;;;;;1.90;1.40;;;;;;;;;;7389211;19;19999;-62
2022/08/10 04:32:39;;;;;;;2.08;1.60;;;;;;;;;;7389739;19;19999;-63
2022/08/10 04:35:06;;;;;;;5.65;2.00;;;;;;;;;;7387789;19;20023;-62
2022/08/10 04:37:33;;;;;;;2.08;1.63;;;;;;;;;;7389064;19;20451;-62
2022/08/10 04:39:59;;;;;;;3.10;1.63;;;;;;;;;;7390194;19;20006;-62
2022/08/10 04:42:25;;;;;;;2.78;1.80;;;;;;;;;;7388509;19;19999;-62
2022/08/10 04:44:53;;;;;;;2.67;1.83;;;;;;;;;;7392223;19;20499;-62
2022/08/10 04:47:18;;;;;;;2.00;1.40;;;;;;;;;;7387402;19;20101;-62
2022/08/10 04:49:44;;;;;;;2.20;1.50;;;;;;;;;;7390103;19;20022;-62
2022/08/10 04:52:10;;;;;;;2.22;1.52;;;;;;;;;;7392499;19;20006;-62
2022/08/10 04:54:35;;;;;;;2.17;1.48;;;;;;;;;;7392401;19;20464;-62
2022/08/10 04:57:00;;;;;;;1.70;1.45;;;;;;;;;;7392903;19;20420;-62
2022/08/10 04:59:26;;;;;;;3.00;1.65;;;;;;;;;;7387667;19;20037;-61
2022/08/10 05:01:51;;;;;;;1.88;1.48;;;;;;;;;;7388954;19;20003;-61
2022/08/10 05:04:16;;;;;;;2.63;1.50;;;;;;;;;;7386427;19;20510;-63
2022/08/10 05:06:42;;;;;;;3.40;1.65;;;;;;;;;;7388563;19;20014;-63
2022/08/10 05:09:07;;;;;;;3.65;1.60;;;;;;;;;;7387753;19;20543;-62
2022/08/10 05:11:33;;;;;;;2.13;1.50;;;;;;;;;;7392713;19;19998;-61
2022/08/10 05:13:58;;;;;;;2.33;1.80;;;;;;;;;;7390551;19;19998;-62
2022/08/10 05:16:23;;;;;;;5.40;1.65;;;;;;;;;;7388824;19;20104;-62
2022/08/10 05:18:48;;;;;;;3.17;1.75;;;;;;;;;;7364780;19;20037;-62
2022/08/10 05:21:14;;;;;;;4.57;1.80;;;;;;;;;;7388997;19;20025;-62
2022/08/10 05:23:39;;;;;;;2.63;1.70;;;;;;;;;;7389304;19;20010;-62
2022/08/10 05:26:05;;;;;;;2.28;1.45;;;;;;;;;;7387523;19;20003;-62
2022/08/10 05:28:30;;;;;;;1.95;1.50;;;;;;;;;;7388972;19;19999;-62
2022/08/10 05:30:55;;;;;;;1.85;1.60;;;;;;;;;;7391035;19;20023;-62
2022/08/10 05:33:21;;;;;;;2.58;1.80;;;;;;;;;;7388974;19;20353;-62
2022/08/10 05:35:46;;;;;;;2.55;1.73;;;;;;;;;;7387349;19;20393;-62
2022/08/10 05:38:14;;;;;;;2.08;1.40;;;;;;;;;;7387462;19;20038;-62
2022/08/10 05:40:42;;;;;;;1.75;1.38;;;;;;;;;;7388461;19;20009;-63
2022/08/10 05:43:07;;;;;;;4.10;1.80;;;;;;;;;;7391558;19;20388;-62
2022/08/10 05:45:33;;;;;;;1.85;1.33;;;;;;;;;;7387519;19;20002;-63
2022/08/10 05:47:59;;;;;;;3.53;1.70;;;;;;;;;;7386428;19;20022;-61
2022/08/10 05:50:26;;;;;;;3.35;1.65;;;;;;;;;;7386134;19;19998;-62
2022/08/10 05:52:52;;;;;;;1.73;1.42;;;;;;;;;;7383711;19;19999;-62
2022/08/10 05:55:18;;;;;;;2.20;1.70;;;;;;;;;;7388313;19;20344;-62
2022/08/10 05:57:44;;;;;;;3.35;1.83;;;;;;;;;;7385175;19;20007;-62
2022/08/10 06:00:14;;;;;;;2.50;1.80;;;;;;;;;;7388721;19;20003;-62
2022/08/10 06:02:43;;;;;;;2.53;1.90;;;;;;;;;;7362952;19;20011;-62
2022/08/10 06:05:12;;;;;;;2.72;1.65;;;;;;;;;;7389063;19;20006;-62
2022/08/10 06:07:47;;;;;;;2.45;1.60;;;;;;;;;;7384685;19;20015;-61
2022/08/10 06:10:14;;;;;;;2.47;1.55;;;;;;;;;;7388663;19;20441;-67
2022/08/10 06:12:40;;;;;;;2.75;1.88;;;;;;;;;;7387505;19;20029;-67
2022/08/10 06:15:07;;;;;;;2.05;1.50;;;;;;;;;;7389342;19;20008;-68
2022/08/10 06:17:32;;;;;;;2.10;1.65;;;;;;;;;;7390509;19;20006;-67
2022/08/10 06:19:58;;;;;;;2.72;1.77;;;;;;;;;;7391010;19;20003;-68
2022/08/10 06:22:32;;;;;;;4.50;2.10;;;;;;;;;;7396537;19;20003;-66
2022/08/10 06:25:00;;;;;;;2.50;1.52;;;;;;;;;;7396508;19;20002;-66
2022/08/10 06:27:25;;;;;;;3.33;2.03;;;;;;;;;;7397296;19;20019;-66
2022/08/10 06:29:52;;;;;;;3.50;1.63;;;;;;;;;;7394024;19;20491;-66
2022/08/10 06:32:24;;;;;;;3.15;1.55;;;;;;;;;;7392366;19;20014;-66
2022/08/10 06:34:52;;;;;;;2.90;1.67;;;;;;;;;;7392410;19;20007;-66
2022/08/10 06:37:20;;;;;;;5.05;1.60;;;;;;;;;;7391580;19;20832;-66
2022/08/10 06:39:47;;;;;;;2.53;1.52;;;;;;;;;;7389612;19;20001;-66
2022/08/10 06:42:16;;;;;;;4.57;1.65;;;;;;;;;;7391264;19;20676;-66
2022/08/10 06:44:55;;;;;;;5.70;1.90;;;;;;;;;;7391937;19;20395;-66
2022/08/10 06:47:25;;;;;;;2.67;1.80;;;;;;;;;;7393521;19;20251;-66
2022/08/10 06:49:54;;;;;;;2.15;1.60;;;;;;;;;;7393555;19;20483;-66
2022/08/10 06:52:21;;;;;;;3.03;1.83;;;;;;;;;;7394826;19;19999;-66
2022/08/10 06:54:47;;;;;;;2.15;1.63;;;;;;;;;;7393757;19;19994;-65
2022/08/10 06:57:15;;;;;;;2.20;1.70;;;;;;;;;;7396672;19;20002;-65
2022/08/10 06:59:44;;;;;;;2.28;1.73;;;;;;;;;;7369718;19;20002;-65
2022/08/10 07:02:17;;;;;;;4.05;1.50;;;;;;;;;;7394471;19;20066;-66
2022/08/10 07:04:47;;;;;;;2.72;1.83;;;;;;;;;;7395797;19;19999;-65
2022/08/10 07:07:17;;;;;;;1.45;1.35;;;;;;;;;;7393939;19;19994;-66
2022/08/10 07:09:44;;;;;;;2.63;1.70;;;;;;;;;;7389237;19;20048;-65
2022/08/10 07:12:12;;;;;;;1.80;1.27;;;;;;;;;;7393233;19;20237;-66
2022/08/10 07:14:41;;;;;;;1.52;1.33;;;;;;;;;;7394128;19;20075;-66
2022/08/10 07:17:10;;;;;;;2.72;1.80;;;;;;;;;;7395447;19;19991;-66
2022/08/10 07:19:38;;;;;;;2.80;1.67;;;;;;;;;;7394067;19;19994;-66
2022/08/10 07:22:05;;;;;;;2.45;1.40;;;;;;;;;;7385620;19;20014;-66
2022/08/10 07:24:33;;;;;;;2.08;1.50;;;;;;;;;;7387971;19;20472;-66
2022/08/10 07:26:59;;;;;;;2.15;1.50;;;;;;;;;;7387676;19;20003;-66
2022/08/10 07:29:29;;;;;;;3.28;1.90;;;;;;;;;;7386643;19;19995;-66
2022/08/10 07:31:57;;;;;;;2.90;1.90;;;;;;;;;;7385586;19;20006;-66
2022/08/10 07:34:25;;;;;;;3.03;1.60;;;;;;;;;;7361513;19;20015;-67
2022/08/10 07:36:52;;;;;;;1.92;1.50;;;;;;;;;;7386992;19;20006;-66
2022/08/10 07:39:19;;;;;;;1.92;1.60;;;;;;;;;;7387487;19;20710;-66
2022/08/10 07:41:48;;;;;;;1.98;1.58;;;;;;;;;;7390445;19;20082;-66
2022/08/10 07:44:14;;;;;;;2.08;1.42;;;;;;;;;;7390440;19;20017;-66
2022/08/10 07:46:44;;;;;;;1.95;1.50;;;;;;;;;;7390561;19;20037;-66
2022/08/10 07:49:17;;;;;;;3.30;1.58;;;;;;;;;;7387962;19;20513;-66
2022/08/10 07:51:42;;;;;;;2.90;2.00;;;;;;;;;;7389331;19;20003;-64
2022/08/10 07:54:14;;;;;;;2.28;1.70;;;;;;;;;;7387517;19;20061;-64
2022/08/10 07:56:42;;;;;;;2.40;1.58;;;;;;;;;;7389043;19;20501;-64
2022/08/10 07:59:14;;;;;;;1.98;1.60;;;;;;;;;;7385853;19;20002;-67
2022/08/10 08:01:43;;;;;;;2.97;1.70;;;;;;;;;;7389297;19;20003;-66
2022/08/10 08:04:11;;;;;;;2.40;1.70;;;;;;;;;;7387646;19;20027;-66
2022/08/10 08:06:38;;;;;;;3.92;1.80;;;;;;;;;;7387287;19;20487;-66
2022/08/10 08:09:04;;;;;;;615.42;85.63;;;;;;;;;;7385670;19;20003;-67
2022/08/10 08:11:31;;;;;;;1.70;1.60;;;;;;;;;;7387365;19;20030;-66
2022/08/10 08:13:58;;;;;;;95.93;13.80;;;;;;;;;;7385194;19;20010;-69
2022/08/10 08:16:24;;;;;;;2.28;1.58;;;;;;;;;;7385183;19;20516;-62
2022/08/10 08:18:55;;;;;;;3.30;1.90;;;;;;;;;;7389848;19;20016;-64
2022/08/10 08:21:21;;;;;;;1.58;1.45;;;;;;;;;;7386434;19;20006;-64
2022/08/10 08:23:49;;;;;;;2.25;1.48;;;;;;;;;;7387977;19;20046;-64
2022/08/10 08:26:16;;;;;;;2.08;1.60;;;;;;;;;;7386489;19;20022;-65
2022/08/10 08:28:44;;;;;;;2.20;1.50;;;;;;;;;;7388533;19;19998;-66
2022/08/10 08:31:12;;;;;;;3.00;1.73;;;;;;;;;;7386937;19;20542;-64
2022/08/10 08:33:38;;;;;;;1.85;1.52;;;;;;;;;;7387615;19;20005;-63
2022/08/10 08:36:04;;;;;;;2.47;1.50;;;;;;;;;;7385286;19;20860;-63
2022/08/10 08:38:30;;;;;;;2.30;1.63;;;;;;;;;;7384925;19;20011;-64
2022/08/10 08:41:34;;;;;;;2.80;1.65;;;;;;;;;;7386911;19;20020;-65
2022/08/10 08:44:13;;;;;;;2.30;1.60;;;;;;;;;;7385818;19;20002;-63
2022/08/10 08:46:55;;;;;;;2.33;1.52;;;;;;;;;;7386076;19;20464;-64
2022/08/10 08:49:51;;;;;;;1.83;1.40;;;;;;;;;;7386686;19;20003;-64
2022/08/10 08:52:35;;;;;;;10.95;4.20;;;;;;;;;;7386497;19;20032;-64
2022/08/10 08:55:10;;;;;;;3.22;1.70;;;;;;;;;;7387614;19;20006;-63
2022/08/10 08:58:04;;;;;;;3.72;1.80;;;;;;;;;;7382312;19;19998;-64
2022/08/10 09:01:05;;;;;;;2.17;1.63;;;;;;;;;;7386511;19;20449;-64
2022/08/10 09:03:52;;;;;;;2.05;1.60;;;;;;;;;;7380908;19;20504;-64
2022/08/10 09:06:33;;;;;;;1.55;1.45;;;;;;;;;;7383765;19;20010;-63
2022/08/10 09:09:11;;;;;;;1.80;1.42;;;;;;;;;;7387489;19;20002;-63
2022/08/10 09:12:18;;;;;;;3.67;1.92;;;;;;;;;;7387363;19;19995;-64
2022/08/10 09:15:02;;;;;;;1.58;1.40;;;;;;;;;;7387688;19;20002;-64
2022/08/10 09:17:30;;;;;;;1.83;1.27;;;;;;;;;;7386372;19;20070;-64
2022/08/10 09:20:04;;;;;;;1.67;1.30;;;;;;;;;;7386644;19;20009;-69
2022/08/10 09:22:37;;;;;;;2.45;1.60;;;;;;;;;;7381946;19;20405;-70
2022/08/10 09:25:13;;;;;;;1.60;1.23;;;;;;;;;;7387094;19;20491;-71
2022/08/10 09:27:46;;;;;;;2.58;1.58;;;;;;;;;;7384365;19;20010;-65
2022/08/10 09:30:20;;;;;;;1.30;1.20;;;;;;;;;;7389376;19;19998;-64
2022/08/10 09:32:55;;;;;;;3.17;1.40;;;;;;;;;;7383906;19;20340;-64
2022/08/10 09:35:30;;;;;;;1.83;1.30;;;;;;;;;;7377753;19;20065;-64
2022/08/10 09:38:23;;;;;;;1.67;1.30;;;;;;;;;;7376417;19;20013;-65
2022/08/10 09:40:57;;;;;;;1.17;1.08;;;;;;;;;;7383672;19;20002;-65
2022/08/10 09:43:46;;;;;;;1.67;1.35;;;;;;;;;;7380596;19;19999;-63
2022/08/10 09:46:41;;;;;;;1.75;1.40;;;;;;;;;;7380451;19;20084;-63
2022/08/10 09:49:19;;;;;;;2.95;1.42;;;;;;;;;;7383985;19;20582;-65
2022/08/10 09:51:58;;;;;;;1.23;1.13;;;;;;;;;;7383878;19;20546;-65
2022/08/10 09:54:38;;;;;;;2.25;1.52;;;;;;;;;;7380170;19;20010;-64
2022/08/10 09:57:12;;;;;;;1.40;1.30;;;;;;;;;;7393673;19;20005;-64
2022/08/10 09:59:46;;;;;;;2.00;1.30;;;;;;;;;;7389321;19;20062;-62
2022/08/10 10:02:34;;;;;;;1.42;1.33;;;;;;;;;;7393737;19;20036;-62
2022/08/10 10:05:06;;;;;;;1.88;1.17;;;;;;;;;;7387986;19;20033;-63
2022/08/10 10:07:35;;;;;;;1.15;1.10;;;;;;;;;;7385757;19;19998;-63
2022/08/10 10:10:09;;;;;;;1.67;1.30;;;;;;;;;;7385245;19;20358;-63
2022/08/10 10:12:37;;;;;;;1.75;1.27;;;;;;;;;;7382490;19;20030;-63
2022/08/10 10:15:30;;;;;;;1.17;1.10;;;;;;;;;;7388066;19;20010;-64
2022/08/10 10:18:01;;;;;;;6.18;1.60;;;;;;;;;;7387048;19;20332;-63
2022/08/10 10:20:39;;;;;;;1.70;1.20;;;;;;;;;;7386339;19;20014;-64
2022/08/10 10:23:14;;;;;;;1.88;1.52;;;;;;;;;;7386723;19;20003;-64
2022/08/10 10:26:19;;;;;;;2.83;1.60;;;;;;;;;;7384590;19;20014;-63
2022/08/10 10:29:01;;;;;;;1.60;1.50;;;;;;;;;;7387640;19;20009;-63
2022/08/10 10:31:55;;;;;;;4.10;1.48;;;;;;;;;;7390207;19;20003;-64
2022/08/10 10:34:38;;;;;;;2.08;1.35;;;;;;;;;;7381845;19;20479;-64
2022/08/10 10:37:06;;;;;;;1.40;1.30;;;;;;;;;;7384910;19;20014;-64
2022/08/10 10:39:34;;;;;;;1.65;1.40;;;;;;;;;;7381467;19;20010;-64
2022/08/10 10:42:10;;;;;;;1.20;1.10;;;;;;;;;;7390058;19;20017;-64
2022/08/10 10:44:38;;;;;;;4.18;1.40;;;;;;;;;;7385658;19;20431;-64
2022/08/10 10:47:34;;;;;;;1.88;1.35;;;;;;;;;;7390589;19;20011;-64
2022/08/10 10:50:30;;;;;;;2.03;1.50;;;;;;;;;;7387077;19;20019;-64
2022/08/10 10:53:12;;;;;;;2.55;1.50;;;;;;;;;;7385289;19;20011;-64
2022/08/10 10:55:52;;;;;;;2.42;1.40;;;;;;;;;;7385796;19;20010;-64
2022/08/10 10:58:30;;;;;;;1.42;1.33;;;;;;;;;;7388558;19;20014;-64
2022/08/10 11:01:30;;;;;;;2.55;1.40;;;;;;;;;;7390946;19;20301;-65
2022/08/10 11:04:19;;;;;;;2.17;1.33;;;;;;;;;;7389686;19;20014;-63
2022/08/10 11:07:10;;;;;;;1.58;1.48;;;;;;;;;;7390401;19;20003;-63
2022/08/10 11:09:48;;;;;;;1.45;1.20;;;;;;;;;;7386089;19;20007;-63
2022/08/10 11:12:47;;;;;;;1.27;1.17;;;;;;;;;;7391197;19;20013;-63
2022/08/10 11:15:25;;;;;;;1.65;1.20;;;;;;;;;;7387260;19;20014;-63
2022/08/10 11:18:00;;;;;;;1.75;1.40;;;;;;;;;;7391522;19;20006;-64
2022/08/10 11:20:36;;;;;;;2.60;1.52;;;;;;;;;;7388277;19;20034;-63
2022/08/10 11:23:33;;;;;;;2.08;1.35;;;;;;;;;;7391842;19;20014;-63
2022/08/10 11:26:10;;;;;;;2.75;1.30;;;;;;;;;;7385113;19;20002;-64
2022/08/10 11:28:41;;;;;;;3.75;1.70;;;;;;;;;;7384436;19;21139;-63
2022/08/10 11:31:20;;;;;;;1.48;1.38;;;;;;;;;;7389793;19;20366;-63
2022/08/10 11:33:45;;;;;;;2.60;1.50;;;;;;;;;;7389532;19;20010;-63
2022/08/10 11:36:13;;;;;;;1.33;1.10;;;;;;;;;;7387612;19;20013;-63
2022/08/10 11:38:51;;;;;;;1.55;1.40;;;;;;;;;;7386594;19;20335;-63
2022/08/10 11:41:44;;;;;;;1.20;1.10;;;;;;;;;;7382742;19;20018;-64
2022/08/10 11:44:32;;;;;;;1.75;1.20;;;;;;;;;;7389310;19;20015;-63
2022/08/10 11:47:07;;;;;;;2.55;1.45;;;;;;;;;;7389549;19;20007;-65
2022/08/10 11:49:46;;;;;;;1.73;1.35;;;;;;;;;;7386217;19;19998;-64
2022/08/10 11:52:18;;;;;;;1.42;1.30;;;;;;;;;;7387501;19;20127;-64
2022/08/10 11:54:51;;;;;;;1.92;1.40;;;;;;;;;;7387426;19;20477;-64
2022/08/10 11:57:17;;;;;;;2.08;1.38;;;;;;;;;;7390323;19;20018;-64
2022/08/10 11:59:55;;;;;;;2.28;1.15;;;;;;;;;;7390530;19;20085;-64
2022/08/10 12:02:23;;;;;;;1.40;1.13;;;;;;;;;;7390659;19;20463;-64
2022/08/10 12:04:59;;;;;;;3.03;1.20;;;;;;;;;;7388766;19;20015;-64
2022/08/10 12:07:29;;;;;;;1.35;1.25;;;;;;;;;;7393922;19;20539;-64
2022/08/10 12:09:55;;;;;;;1.70;1.50;;;;;;;;;;7389563;19;20559;-65
2022/08/10 12:12:33;;;;;;;1.48;1.30;;;;;;;;;;7389982;19;20767;-62
2022/08/10 12:15:07;;;;;;;1.27;1.17;;;;;;;;;;7389169;19;20006;-64
2022/08/10 12:17:37;;;;;;;2.25;1.60;;;;;;;;;;7391057;19;20005;-64
2022/08/10 12:20:08;;;;;;;1.58;1.13;;;;;;;;;;7392999;19;19999;-65
2022/08/10 12:23:11;;;;;;;;;;;;;;;;;;;;;
2022/08/10 12:25:44;;;;;;;2.08;1.45;;;;;;;;;;7392181;19;20007;-65
2022/08/10 12:28:19;;;;;;;2.05;1.30;;;;;;;;;;7390390;19;20031;-64
2022/08/10 12:30:56;;;;;;;1.48;1.30;;;;;;;;;;7389170;19;20401;-63
2022/08/10 12:33:25;;;;;;;1.75;1.30;;;;;;;;;;7390660;19;20483;-63
2022/08/10 12:36:00;;;;;;;1.60;1.50;;;;;;;;;;7391662;19;20104;-63
2022/08/10 12:38:59;;;;;;;1.60;1.40;;;;;;;;;;7392383;19;19995;-63
2022/08/10 12:41:51;;;;;;;1.30;1.20;;;;;;;;;;7391295;19;20586;-63
2022/08/10 12:44:38;;;;;;;2.90;1.45;;;;;;;;;;7392536;19;20324;-63
2022/08/10 12:47:17;;;;;;;1.55;1.10;;;;;;;;;;7390046;19;19995;-63
2022/08/10 12:49:53;;;;;;;1.15;1.10;;;;;;;;;;7390264;19;20002;-63
2022/08/10 12:52:27;;;;;;;2.42;1.25;;;;;;;;;;7392022;19;20018;-63
2022/08/10 12:54:56;;;;;;;1.27;1.17;;;;;;;;;;7389382;19;20733;-64
2022/08/10 12:57:23;;;;;;;1.38;1.27;;;;;;;;;;7390584;19;19994;-65
2022/08/10 12:59:51;;;;;;;1.23;1.13;;;;;;;;;;7390586;19;20002;-67
2022/08/10 13:02:33;;;;;;;2.42;1.40;;;;;;;;;;7390855;19;20014;-63
2022/08/10 13:05:03;;;;;;;1.67;1.27;;;;;;;;;;7389470;19;20018;-62
2022/08/10 13:07:34;;;;;;;1.88;1.20;;;;;;;;;;7387966;19;20384;-62
2022/08/10 13:10:03;;;;;;;1.10;0.98;;;;;;;;;;7388627;19;19999;-62
2022/08/10 13:12:32;;;;;;;1.85;1.20;;;;;;;;;;7391478;19;20018;-62
2022/08/10 13:15:20;;;;;;;1.25;1.13;;;;;;;;;;7391207;19;20025;-62
2022/08/10 13:17:51;;;;;;;1.40;1.30;;;;;;;;;;7390283;19;20019;-65
2022/08/10 13:20:25;;;;;;;1.20;1.10;;;;;;;;;;7390405;19;20033;-64
2022/08/10 13:22:54;;;;;;;1.30;1.20;;;;;;;;;;7390665;19;19995;-64
2022/08/10 13:25:24;;;;;;;;;;;;;;;;;;7388673;19;20006;-64
2022/08/10 13:27:52;;;;;;;1.73;1.40;;;;;;;;;;7390015;19;19921;-64
2022/08/10 13:30:18;;;;;;;1.95;1.48;;;;;;;;;;7390056;19;20013;-64
2022/08/10 13:32:49;;;;;;;1.27;1.17;;;;;;;;;;7387117;19;19999;-64
2022/08/10 13:35:18;;;;;;;2.55;1.38;;;;;;;;;;7387999;19;19998;-64
2022/08/10 13:37:46;;;;;;;1.88;1.40;;;;;;;;;;7390859;19;20006;-64
2022/08/10 13:40:18;;;;;;;1.30;1.25;;;;;;;;;;7390209;19;20348;-64
2022/08/10 13:42:45;;;;;;;1.42;1.27;;;;;;;;;;7388652;19;20471;-64
2022/08/10 13:45:19;;;;;;;1.30;1.20;;;;;;;;;;7388674;19;20007;-64
2022/08/10 13:47:48;;;;;;;1.40;1.30;;;;;;;;;;7389847;19;20375;-64
2022/08/10 13:50:19;;;;;;;1.95;1.10;;;;;;;;;;7390148;19;20069;-64
2022/08/10 13:52:50;;;;;;;1.98;1.40;;;;;;;;;;7388265;19;20421;-64
2022/08/10 13:55:19;;;;;;;1.40;1.30;;;;;;;;;;7387229;19;20038;-64
2022/08/10 13:57:53;;;;;;;2.10;1.40;;;;;;;;;;7390382;19;20091;-64
2022/08/10 14:00:20;;;;;;;2.13;1.35;;;;;;;;;;7390109;19;19999;-64
2022/08/10 14:02:59;;;;;;;1.30;1.20;;;;;;;;;;7388498;19;20002;-64
2022/08/10 14:05:29;;;;;;;1.20;1.10;;;;;;;;;;7387609;19;19999;-64
2022/08/10 14:07:57;;;;;;;1.15;1.10;;;;;;;;;;7391039;19;20003;-64
2022/08/10 14:10:25;;;;;;;2.03;1.30;;;;;;;;;;7388769;19;20023;-64
2022/08/10 14:12:52;;;;;;;1.15;1.05;;;;;;;;;;7386882;19;20015;-64
2022/08/10 14:15:25;;;;;;;1.30;1.20;;;;;;;;;;7387739;19;19995;-65
2022/08/10 14:17:54;;;;;;;1.02;1.02;;;;;;;;;;7363912;19;20010;-64
2022/08/10 14:20:26;;;;;;;1.65;1.27;;;;;;;;;;7387734;19;20002;-64
2022/08/10 14:23:02;;;;;;;2.35;1.40;;;;;;;;;;7387432;19;20009;-64
2022/08/10 14:25:31;;;;;;;1.90;1.30;;;;;;;;;;7386891;19;20006;-64
2022/08/10 14:27:58;;;;;;;1.30;1.20;;;;;;;;;;7388905;19;20002;-63
2022/08/10 14:30:26;;;;;;;1.90;1.30;;;;;;;;;;7386536;19;20013;-64
2022/08/10 14:32:52;;;;;;;1.75;1.40;;;;;;;;;;7386001;19;19999;-64
2022/08/10 14:35:20;;;;;;;1.33;1.23;;;;;;;;;;7385992;19;20377;-64
2022/08/10 14:37:53;;;;;;;1.30;1.20;;;;;;;;;;7386924;19;20376;-64
2022/08/10 14:40:21;;;;;;;1.52;1.40;;;;;;;;;;7388969;19;20010;-63
2022/08/10 14:42:58;;;;;;;1.80;1.33;;;;;;;;;;7395477;19;20011;-63
2022/08/10 14:45:27;;;;;;;1.52;1.17;;;;;;;;;;7393873;19;20005;-63
2022/08/10 14:47:58;;;;;;;1.25;1.08;;;;;;;;;;7396272;19;20491;-64
2022/08/10 14:50:27;;;;;;;1.55;1.30;;;;;;;;;;7394781;19;20002;-63
2022/08/10 14:52:54;;;;;;;1.43;1.33;;;;;;;;;;7393191;19;20014;-64
2022/08/10 14:55:19;;;;;;;1.48;1.38;;;;;;;;;;7393089;19;20028;-63
2022/08/10 14:57:46;;;;;;;1.20;1.10;;;;;;;;;;7393367;19;20503;-63
2022/08/10 15:00:12;;;;;;;2.08;1.33;;;;;;;;;;7394288;19;20006;-63
2022/08/10 15:02:44;;;;;;;1.50;1.40;;;;;;;;;;7392328;19;20467;-63
2022/08/10 15:05:13;;;;;;;1.35;1.25;;;;;;;;;;7392419;19;20002;-62
2022/08/10 15:07:39;;;;;;;2.20;1.50;;;;;;;;;;7391166;19;21020;-63
2022/08/10 15:10:21;;;;;;;1.30;1.20;;;;;;;;;;7393980;19;20011;-64
2022/08/10 15:13:04;;;;;;;1.33;1.23;;;;;;;;;;7390853;19;20007;-66
2022/08/10 15:15:36;;;;;;;1.73;1.25;;;;;;;;;;7390989;19;20036;-62